Miedwie — C6XP5 — position and weather

sailwx.info

Track history (hours):
 
Tides and Currents Weather Stations Pressure Air Temp Water Temp Dewpoint Dewpoint Depression Visibility Wind Speed Wind Dir Waves Ship Positions

Miedwie

Last reported at 2015-Apr-18 14:29 UTC. Time now 2015-Apr-18 15:11 UTC.
Position N 52°28' E 004°36'.

Length 190 m; draft 6.6 m.

Type: Cargo ship. MMSI: 311018300.

Date/timePositionNaut miles runAvg speedWind from/ knotsBaromVisibWave heightAir tempDewpointWater temp
2015-Apr-18 14:29N 52°28' E 004°36'0 0.0
2015-Apr-18 13:31N 52°28' E 004°36'0 0.0
2015-Apr-18 12:31N 52°28' E 004°36'0 0.0
2015-Apr-18 11:31N 52°28' E 004°36'0 0.0
2015-Apr-18 10:31N 52°28' E 004°36'0 0.0
2015-Apr-18 09:31N 52°28' E 004°36'0 0.0
2015-Apr-18 08:28N 52°28' E 004°36'0 0.0
2015-Apr-18 07:31N 52°28' E 004°36'0 0.0
2015-Apr-18 06:31N 52°28' E 004°36'0 0.0
2015-Apr-18 05:31N 52°28' E 004°36'0 0.0
2015-Apr-18 04:31N 52°28' E 004°36'0 0.0
2015-Apr-18 03:31N 52°28' E 004°36'0 0.0
2015-Apr-18 02:31N 52°28' E 004°36'0 0.0
2015-Apr-18 01:29N 52°28' E 004°36'0 0.0
2015-Apr-18 00:31N 52°28' E 004°36'0 0.0
2015-Apr-17 23:28N 52°28' E 004°36'0 0.0
2015-Apr-17 22:31N 52°28' E 004°36'0 0.0
2015-Apr-17 21:31N 52°28' E 004°36'0 0.0
2015-Apr-17 20:33N 52°28' E 004°36'5 5.1
2015-Apr-17 19:33N 52°28' E 004°28'9 8.9
2015-Apr-17 18:33N 52°29' E 004°14'1312.6
2015-Apr-17 17:33N 52°39' E 004°02'1312.6
2015-Apr-17 16:33N 52°52' E 003°59'1212.0
2015-Apr-17 15:33N 53°02' E 004°09'2812.1
2015-Apr-17 13:12N 53°26' E 004°34'1014.1
2015-Apr-17 12:30N 53°35' E 004°38'1314.1
2015-Apr-17 11:33N 53°48' E 004°46'1414.0
2015-Apr-17 10:33N 54°01' E 004°53'1414.0
2015-Apr-17 09:33N 54°12' E 005°08'9713.7
2015-Apr-17 02:30N 55°36' E 006°33'17512.1
2015-Apr-16 12:03N 57°44' E 010°10'612.2
2015-Apr-16 11:33N 57°46' E 010°21'1110.9
2015-Apr-16 10:33N 57°50' E 010°39'1111.3
2015-Apr-16 09:33N 57°44' E 010°57'1313.0
2015-Apr-16 08:33N 57°34' E 011°14'1212.5
2015-Apr-16 07:33N 57°25' E 011°28'1212.4
2015-Apr-16 06:33N 57°13' E 011°36'1212.1
2015-Apr-16 05:33N 57°01' E 011°44'1111.6
2015-Apr-16 04:33N 56°51' E 011°51'1111.2
2015-Apr-16 03:33N 56°40' E 011°56'1411.7
2015-Apr-16 02:20N 56°26' E 012°02'911.4
2015-Apr-16 01:33N 56°17' E 012°06'1212.0
2015-Apr-16 00:33N 56°11' E 012°24'1111.1
2015-Apr-15 23:33N 56°03' E 012°39'10 9.7
2015-Apr-15 22:33N 55°54' E 012°40'1111.2
2015-Apr-15 21:33N 55°45' E 012°51'9 9.2
2015-Apr-15 20:33N 55°35' E 012°51'1211.5
2015-Apr-15 19:33N 55°25' E 012°42'9 9.4
2015-Apr-15 18:33N 55°17' E 012°49'1311.0
2015-Apr-15 17:20N 55°10' E 013°10'1312.6
2015-Apr-15 16:17N 54°60' E 013°23'1013.5
2015-Apr-15 15:33N 54°51' E 013°31'1313.0
2015-Apr-15 14:33N 54°39' E 013°41'1313.2
2015-Apr-15 13:33N 54°28' E 013°51'1313.1
2015-Apr-15 12:33N 54°17' E 014°06'1313.0
2015-Apr-15 11:33N 54°06' E 014°14'6 5.6
2015-Apr-15 10:33N 53°60' E 014°16'2 1.9
2015-Apr-15 09:33N 54°02' E 014°17'8 7.8
2015-Apr-15 08:33N 53°54' E 014°15'8 7.8
2015-Apr-15 07:33N 53°47' E 014°22'1111.1
2015-Apr-15 06:33N 53°39' E 014°34'9 8.9
2015-Apr-15 05:33N 53°30' E 014°38'4 3.6
2015-Apr-15 04:31N 53°27' E 014°35'0 0.0
2015-Apr-15 03:31N 53°27' E 014°35'0 0.0
2015-Apr-15 02:31N 53°27' E 014°35'0 0.0
2015-Apr-15 01:31N 53°27' E 014°35'0 0.0
2015-Apr-15 00:31N 53°27' E 014°35'0 0.0
2015-Apr-14 23:31N 53°27' E 014°35'0 0.0
2015-Apr-14 22:31N 53°27' E 014°35'0 0.0
2015-Apr-14 21:31N 53°27' E 014°35'0 0.0
2015-Apr-14 20:31N 53°27' E 014°35'0 0.0
2015-Apr-14 19:31N 53°27' E 014°35'0 0.0
2015-Apr-14 18:31N 53°27' E 014°35'0 0.0
2015-Apr-14 17:31N 53°27' E 014°35'0 0.0
2015-Apr-14 16:31N 53°27' E 014°35'0 0.0
2015-Apr-14 15:31N 53°27' E 014°35'0 0.0
2015-Apr-14 14:28N 53°27' E 014°35'0 0.0
2015-Apr-14 13:31N 53°27' E 014°35'0 0.0
2015-Apr-14 12:31N 53°27' E 014°35'0 0.0
2015-Apr-14 11:31N 53°27' E 014°35'0 0.0
2015-Apr-14 10:31N 53°27' E 014°35'0 0.0
2015-Apr-14 09:31N 53°27' E 014°35'0 0.0
2015-Apr-14 08:31N 53°27' E 014°35'0 0.0
2015-Apr-14 07:31N 53°27' E 014°35'0 0.0
2015-Apr-14 06:31N 53°27' E 014°35'0 0.0
2015-Apr-14 05:28N 53°27' E 014°35'0 0.0
2015-Apr-14 04:31N 53°27' E 014°35'0 0.0
2015-Apr-14 03:31N 53°27' E 014°35'0 0.0
2015-Apr-14 02:31N 53°27' E 014°35'0 0.0
2015-Apr-14 01:32N 53°27' E 014°35'0 0.0
2015-Apr-14 00:31N 53°27' E 014°35'0 0.0
2015-Apr-13 23:31N 53°27' E 014°35'0 0.0
2015-Apr-13 22:31N 53°27' E 014°35'0 0.0
2015-Apr-13 21:31N 53°27' E 014°35'0 0.0
2015-Apr-13 20:31N 53°27' E 014°35'0 0.0
2015-Apr-13 19:31N 53°27' E 014°35'0 0.0
2015-Apr-13 18:31N 53°27' E 014°35'0 0.0
2015-Apr-13 17:32N 53°27' E 014°35'0 0.0
2015-Apr-13 16:31N 53°27' E 014°35'0 0.0
2015-Apr-13 15:31N 53°27' E 014°35'0 0.0
2015-Apr-13 14:31N 53°27' E 014°35'0 0.0
2015-Apr-13 13:31N 53°27' E 014°35'0 0.0
2015-Apr-13 12:31N 53°27' E 014°35'0 0.0
2015-Apr-13 11:31N 53°27' E 014°35'0 0.0
2015-Apr-13 10:31N 53°27' E 014°35'0 0.0
2015-Apr-13 09:31N 53°27' E 014°35'0 0.0
2015-Apr-13 08:31N 53°27' E 014°35'0 0.0
2015-Apr-13 07:31N 53°27' E 014°35'0 0.0
2015-Apr-13 06:31N 53°27' E 014°35'0 0.0
2015-Apr-13 05:28N 53°27' E 014°35'0 0.0
2015-Apr-13 04:31N 53°27' E 014°35'0 0.0
2015-Apr-13 03:31N 53°27' E 014°35'0 0.0
2015-Apr-13 02:31N 53°27' E 014°35'0 0.0
2015-Apr-13 01:31N 53°27' E 014°35'0 0.0
2015-Apr-13 00:31N 53°27' E 014°35'0 0.0
2015-Apr-12 23:31N 53°27' E 014°35'0 0.0
2015-Apr-12 22:31N 53°27' E 014°35'0 0.0
2015-Apr-12 21:31N 53°27' E 014°35'0 0.0
2015-Apr-12 20:31N 53°27' E 014°35'0 0.0
2015-Apr-12 19:31N 53°27' E 014°35'0 0.0
2015-Apr-12 18:31N 53°27' E 014°35'0 0.0
2015-Apr-12 17:31N 53°27' E 014°35'0 0.0
2015-Apr-12 16:31N 53°27' E 014°35'0 0.0
2015-Apr-12 15:31N 53°27' E 014°35'0 0.0
2015-Apr-12 14:31N 53°27' E 014°35'0 0.0
2015-Apr-12 13:31N 53°27' E 014°35'0 0.0
2015-Apr-12 12:31N 53°27' E 014°35'0 0.0
2015-Apr-12 11:31N 53°27' E 014°35'0 0.0
2015-Apr-12 10:31N 53°27' E 014°35'0 0.0
2015-Apr-12 09:31N 53°27' E 014°35'0 0.0
2015-Apr-12 08:31N 53°27' E 014°35'0 0.0
2015-Apr-12 07:32N 53°27' E 014°35'0 0.0
2015-Apr-12 06:31N 53°27' E 014°35'0 0.0
2015-Apr-12 05:31N 53°27' E 014°35'0 0.0
2015-Apr-12 04:31N 53°27' E 014°35'0 0.0
2015-Apr-12 03:32N 53°27' E 014°35'0 0.0
2015-Apr-12 02:28N 53°27' E 014°35'0 0.0
2015-Apr-12 01:29N 53°27' E 014°35'0 0.0
2015-Apr-12 00:31N 53°27' E 014°35'0 0.0
2015-Apr-11 23:31N 53°27' E 014°35'0 0.0
2015-Apr-11 22:31N 53°27' E 014°35'0 0.0
2015-Apr-11 21:31N 53°27' E 014°35'0 0.0
2015-Apr-11 20:31N 53°27' E 014°35'0 0.0
2015-Apr-11 19:31N 53°27' E 014°35'0 0.0
2015-Apr-11 18:31N 53°27' E 014°35'0 0.0
2015-Apr-11 17:31N 53°27' E 014°35'0 0.0
2015-Apr-11 16:31N 53°27' E 014°35'0 0.0
2015-Apr-11 15:28N 53°27' E 014°35'0 0.0
2015-Apr-11 14:31N 53°27' E 014°35'0 0.0
2015-Apr-11 13:31N 53°27' E 014°35'0 0.0
2015-Apr-11 12:31N 53°27' E 014°35'0 0.0
2015-Apr-11 11:31N 53°27' E 014°35'0 0.0
2015-Apr-11 10:31N 53°27' E 014°35'0 0.0
2015-Apr-11 09:31N 53°27' E 014°35'0 0.0
2015-Apr-11 08:31N 53°27' E 014°35'0 0.0
2015-Apr-11 07:31N 53°27' E 014°35'0 0.0
2015-Apr-11 06:31N 53°27' E 014°35'0 0.0
2015-Apr-11 05:31N 53°27' E 014°35'0 0.0
2015-Apr-11 04:31N 53°27' E 014°35'0 0.0
2015-Apr-11 03:31N 53°27' E 014°35'0 0.0
2015-Apr-11 02:31N 53°27' E 014°35'0 0.0
2015-Apr-11 01:31N 53°27' E 014°35'0 0.0
2015-Apr-11 00:31N 53°27' E 014°35'0 0.0
2015-Apr-10 23:31N 53°27' E 014°35'0 0.0
2015-Apr-10 22:31N 53°27' E 014°35'0 0.0
2015-Apr-10 21:31N 53°27' E 014°35'0 0.0
2015-Apr-10 20:31N 53°27' E 014°35'0 0.0
2015-Apr-10 19:31N 53°27' E 014°35'0 0.0
2015-Apr-10 18:31N 53°27' E 014°35'0 0.0
2015-Apr-10 17:31N 53°27' E 014°35'0 0.0
2015-Apr-10 16:31N 53°27' E 014°35'0 0.0
2015-Apr-10 15:31N 53°27' E 014°35'0 0.0
2015-Apr-10 14:31N 53°27' E 014°35'0 0.0
2015-Apr-10 13:31N 53°27' E 014°35'0 0.0
2015-Apr-10 12:32N 53°27' E 014°35'0 0.0
2015-Apr-10 11:32N 53°27' E 014°35'0 0.0
2015-Apr-10 10:32N 53°27' E 014°35'0 0.0
2015-Apr-10 09:32N 53°27' E 014°35'0 0.0
2015-Apr-10 08:33N 53°27' E 014°35'0 0.0
2015-Apr-10 07:33N 53°27' E 014°35'0 0.0
2015-Apr-10 06:33N 53°27' E 014°35'0 0.0
2015-Apr-10 05:33N 53°27' E 014°35'0 0.0
2015-Apr-10 04:33N 53°27' E 014°35'0 0.0
2015-Apr-10 03:33N 53°27' E 014°35'0 0.0
2015-Apr-10 02:33N 53°27' E 014°35'0 0.0
2015-Apr-10 01:30N 53°27' E 014°35'0 0.0
2015-Apr-10 00:33N 53°27' E 014°35'0 0.0
2015-Apr-09 23:33N 53°27' E 014°35'0 0.0
2015-Apr-09 22:33N 53°27' E 014°35'0 0.0
2015-Apr-09 21:33N 53°27' E 014°35'0 0.0
2015-Apr-09 20:33N 53°27' E 014°35'0 0.0
2015-Apr-09 19:33N 53°27' E 014°35'0 0.0
2015-Apr-09 18:33N 53°27' E 014°35'0 0.0
2015-Apr-09 17:33N 53°27' E 014°35'0 0.0
2015-Apr-09 16:33N 53°27' E 014°35'0 0.0
2015-Apr-09 15:33N 53°27' E 014°35'0 0.0
2015-Apr-09 14:33N 53°27' E 014°35'0 0.0
2015-Apr-09 13:33N 53°27' E 014°35'0 0.0
2015-Apr-09 12:33N 53°27' E 014°35'0 0.0
2015-Apr-09 11:33N 53°27' E 014°35'0 0.0
2015-Apr-09 10:33N 53°27' E 014°35'0 0.0
2015-Apr-09 09:33N 53°27' E 014°35'0 0.0
2015-Apr-09 08:33N 53°27' E 014°35'0 0.0
2015-Apr-09 07:33N 53°27' E 014°35'0 0.0
2015-Apr-09 06:33N 53°27' E 014°35'0 0.0
2015-Apr-09 05:33N 53°27' E 014°35'0 0.0
2015-Apr-09 04:33N 53°27' E 014°35'0 0.0
2015-Apr-09 03:33N 53°27' E 014°35'0 0.0
2015-Apr-09 02:33N 53°27' E 014°35'0 0.0
2015-Apr-09 01:33N 53°27' E 014°35'0 0.0
2015-Apr-09 00:33N 53°27' E 014°35'0 0.0
2015-Apr-08 23:33N 53°27' E 014°35'0 0.0
2015-Apr-08 22:33N 53°27' E 014°35'0 0.0
2015-Apr-08 21:33N 53°27' E 014°35'0 0.0
2015-Apr-08 20:33N 53°27' E 014°35'0 0.0
2015-Apr-08 19:33N 53°27' E 014°35'0 0.0
2015-Apr-08 18:33N 53°27' E 014°35'0 0.0
2015-Apr-08 17:33N 53°27' E 014°35'0 0.0
2015-Apr-08 16:33N 53°27' E 014°35'0 0.0
2015-Apr-08 15:33N 53°27' E 014°35'0 0.0
2015-Apr-08 14:33N 53°27' E 014°35'  
Track history (hours):
 
Tides and Currents Weather Stations Pressure Air Temp Water Temp Dewpoint Dewpoint Depression Visibility Wind Speed Wind Dir Waves Ship Positions

Miedwie

Last reported at 2015-Apr-18 14:29 UTC. Time now 2015-Apr-18 15:11 UTC.
Position N 52°28' E 004°36'.

Length 190 m; draft 6.6 m.

Type: Cargo ship. MMSI: 311018300.

Date/timePositionNaut miles runAvg speedWind from/ knotsBaromVisibWave heightAir tempDewpointWater temp
2015-Apr-18 14:29N 52°28' E 004°36'0 0.0
2015-Apr-18 13:31N 52°28' E 004°36'0 0.0
2015-Apr-18 12:31N 52°28' E 004°36'0 0.0
2015-Apr-18 11:31N 52°28' E 004°36'0 0.0
2015-Apr-18 10:31N 52°28' E 004°36'0 0.0
2015-Apr-18 09:31N 52°28' E 004°36'0 0.0
2015-Apr-18 08:28N 52°28' E 004°36'0 0.0
2015-Apr-18 07:31N 52°28' E 004°36'0 0.0
2015-Apr-18 06:31N 52°28' E 004°36'0 0.0
2015-Apr-18 05:31N 52°28' E 004°36'0 0.0
2015-Apr-18 04:31N 52°28' E 004°36'0 0.0
2015-Apr-18 03:31N 52°28' E 004°36'0 0.0
2015-Apr-18 02:31N 52°28' E 004°36'0 0.0
2015-Apr-18 01:29N 52°28' E 004°36'0 0.0
2015-Apr-18 00:31N 52°28' E 004°36'0 0.0
2015-Apr-17 23:28N 52°28' E 004°36'0 0.0
2015-Apr-17 22:31N 52°28' E 004°36'0 0.0
2015-Apr-17 21:31N 52°28' E 004°36'0 0.0
2015-Apr-17 20:33N 52°28' E 004°36'5 5.1
2015-Apr-17 19:33N 52°28' E 004°28'9 8.9
2015-Apr-17 18:33N 52°29' E 004°14'1312.6
2015-Apr-17 17:33N 52°39' E 004°02'1312.6
2015-Apr-17 16:33N 52°52' E 003°59'1212.0
2015-Apr-17 15:33N 53°02' E 004°09'2812.1
2015-Apr-17 13:12N 53°26' E 004°34'1014.1
2015-Apr-17 12:30N 53°35' E 004°38'1314.1
2015-Apr-17 11:33N 53°48' E 004°46'1414.0
2015-Apr-17 10:33N 54°01' E 004°53'1414.0
2015-Apr-17 09:33N 54°12' E 005°08'9713.7
2015-Apr-17 02:30N 55°36' E 006°33'17512.1
2015-Apr-16 12:03N 57°44' E 010°10'612.2
2015-Apr-16 11:33N 57°46' E 010°21'1110.9
2015-Apr-16 10:33N 57°50' E 010°39'1111.3
2015-Apr-16 09:33N 57°44' E 010°57'1313.0
2015-Apr-16 08:33N 57°34' E 011°14'1212.5
2015-Apr-16 07:33N 57°25' E 011°28'1212.4
2015-Apr-16 06:33N 57°13' E 011°36'1212.1
2015-Apr-16 05:33N 57°01' E 011°44'1111.6
2015-Apr-16 04:33N 56°51' E 011°51'1111.2
2015-Apr-16 03:33N 56°40' E 011°56'1411.7
2015-Apr-16 02:20N 56°26' E 012°02'911.4
2015-Apr-16 01:33N 56°17' E 012°06'1212.0
2015-Apr-16 00:33N 56°11' E 012°24'1111.1
2015-Apr-15 23:33N 56°03' E 012°39'10 9.7
2015-Apr-15 22:33N 55°54' E 012°40'1111.2
2015-Apr-15 21:33N 55°45' E 012°51'9 9.2
2015-Apr-15 20:33N 55°35' E 012°51'1211.5
2015-Apr-15 19:33N 55°25' E 012°42'9 9.4
2015-Apr-15 18:33N 55°17' E 012°49'1311.0
2015-Apr-15 17:20N 55°10' E 013°10'1312.6
2015-Apr-15 16:17N 54°60' E 013°23'1013.5
2015-Apr-15 15:33N 54°51' E 013°31'1313.0
2015-Apr-15 14:33N 54°39' E 013°41'1313.2
2015-Apr-15 13:33N 54°28' E 013°51'1313.1
2015-Apr-15 12:33N 54°17' E 014°06'1313.0
2015-Apr-15 11:33N 54°06' E 014°14'6 5.6
2015-Apr-15 10:33N 53°60' E 014°16'2 1.9
2015-Apr-15 09:33N 54°02' E 014°17'8 7.8
2015-Apr-15 08:33N 53°54' E 014°15'8 7.8
2015-Apr-15 07:33N 53°47' E 014°22'1111.1
2015-Apr-15 06:33N 53°39' E 014°34'9 8.9
2015-Apr-15 05:33N 53°30' E 014°38'4 3.6
2015-Apr-15 04:31N 53°27' E 014°35'0 0.0
2015-Apr-15 03:31N 53°27' E 014°35'0 0.0
2015-Apr-15 02:31N 53°27' E 014°35'0 0.0
2015-Apr-15 01:31N 53°27' E 014°35'0 0.0
2015-Apr-15 00:31N 53°27' E 014°35'0 0.0
2015-Apr-14 23:31N 53°27' E 014°35'0 0.0
2015-Apr-14 22:31N 53°27' E 014°35'0 0.0
2015-Apr-14 21:31N 53°27' E 014°35'0 0.0
2015-Apr-14 20:31N 53°27' E 014°35'0 0.0
2015-Apr-14 19:31N 53°27' E 014°35'0 0.0
2015-Apr-14 18:31N 53°27' E 014°35'0 0.0
2015-Apr-14 17:31N 53°27' E 014°35'0 0.0
2015-Apr-14 16:31N 53°27' E 014°35'0 0.0
2015-Apr-14 15:31N 53°27' E 014°35'0 0.0
2015-Apr-14 14:28N 53°27' E 014°35'0 0.0
2015-Apr-14 13:31N 53°27' E 014°35'0 0.0
2015-Apr-14 12:31N 53°27' E 014°35'0 0.0
2015-Apr-14 11:31N 53°27' E 014°35'0 0.0
2015-Apr-14 10:31N 53°27' E 014°35'0 0.0
2015-Apr-14 09:31N 53°27' E 014°35'0 0.0
2015-Apr-14 08:31N 53°27' E 014°35'0 0.0
2015-Apr-14 07:31N 53°27' E 014°35'0 0.0
2015-Apr-14 06:31N 53°27' E 014°35'0 0.0
2015-Apr-14 05:28N 53°27' E 014°35'0 0.0
2015-Apr-14 04:31N 53°27' E 014°35'0 0.0
2015-Apr-14 03:31N 53°27' E 014°35'0 0.0
2015-Apr-14 02:31N 53°27' E 014°35'0 0.0
2015-Apr-14 01:32N 53°27' E 014°35'0 0.0
2015-Apr-14 00:31N 53°27' E 014°35'0 0.0
2015-Apr-13 23:31N 53°27' E 014°35'0 0.0
2015-Apr-13 22:31N 53°27' E 014°35'0 0.0
2015-Apr-13 21:31N 53°27' E 014°35'0 0.0
2015-Apr-13 20:31N 53°27' E 014°35'0 0.0
2015-Apr-13 19:31N 53°27' E 014°35'0 0.0
2015-Apr-13 18:31N 53°27' E 014°35'0 0.0
2015-Apr-13 17:32N 53°27' E 014°35'0 0.0
2015-Apr-13 16:31N 53°27' E 014°35'0 0.0
2015-Apr-13 15:31N 53°27' E 014°35'0 0.0
2015-Apr-13 14:31N 53°27' E 014°35'0 0.0
2015-Apr-13 13:31N 53°27' E 014°35'0 0.0
2015-Apr-13 12:31N 53°27' E 014°35'0 0.0
2015-Apr-13 11:31N 53°27' E 014°35'0 0.0
2015-Apr-13 10:31N 53°27' E 014°35'0 0.0
2015-Apr-13 09:31N 53°27' E 014°35'0 0.0
2015-Apr-13 08:31N 53°27' E 014°35'0 0.0
2015-Apr-13 07:31N 53°27' E 014°35'0 0.0
2015-Apr-13 06:31N 53°27' E 014°35'0 0.0
2015-Apr-13 05:28N 53°27' E 014°35'0 0.0
2015-Apr-13 04:31N 53°27' E 014°35'0 0.0
2015-Apr-13 03:31N 53°27' E 014°35'0 0.0
2015-Apr-13 02:31N 53°27' E 014°35'0 0.0
2015-Apr-13 01:31N 53°27' E 014°35'0 0.0
2015-Apr-13 00:31N 53°27' E 014°35'0 0.0
2015-Apr-12 23:31N 53°27' E 014°35'0 0.0
2015-Apr-12 22:31N 53°27' E 014°35'0 0.0
2015-Apr-12 21:31N 53°27' E 014°35'0 0.0
2015-Apr-12 20:31N 53°27' E 014°35'0 0.0
2015-Apr-12 19:31N 53°27' E 014°35'0 0.0
2015-Apr-12 18:31N 53°27' E 014°35'0 0.0
2015-Apr-12 17:31N 53°27' E 014°35'0 0.0
2015-Apr-12 16:31N 53°27' E 014°35'0 0.0
2015-Apr-12 15:31N 53°27' E 014°35'0 0.0
2015-Apr-12 14:31N 53°27' E 014°35'0 0.0
2015-Apr-12 13:31N 53°27' E 014°35'0 0.0
2015-Apr-12 12:31N 53°27' E 014°35'0 0.0
2015-Apr-12 11:31N 53°27' E 014°35'0 0.0
2015-Apr-12 10:31N 53°27' E 014°35'0 0.0
2015-Apr-12 09:31N 53°27' E 014°35'0 0.0
2015-Apr-12 08:31N 53°27' E 014°35'0 0.0
2015-Apr-12 07:32N 53°27' E 014°35'0 0.0
2015-Apr-12 06:31N 53°27' E 014°35'0 0.0
2015-Apr-12 05:31N 53°27' E 014°35'0 0.0
2015-Apr-12 04:31N 53°27' E 014°35'0 0.0
2015-Apr-12 03:32N 53°27' E 014°35'0 0.0
2015-Apr-12 02:28N 53°27' E 014°35'0 0.0
2015-Apr-12 01:29N 53°27' E 014°35'0 0.0
2015-Apr-12 00:31N 53°27' E 014°35'0 0.0
2015-Apr-11 23:31N 53°27' E 014°35'0 0.0
2015-Apr-11 22:31N 53°27' E 014°35'0 0.0
2015-Apr-11 21:31N 53°27' E 014°35'0 0.0
2015-Apr-11 20:31N 53°27' E 014°35'0 0.0
2015-Apr-11 19:31N 53°27' E 014°35'0 0.0
2015-Apr-11 18:31N 53°27' E 014°35'0 0.0
2015-Apr-11 17:31N 53°27' E 014°35'0 0.0
2015-Apr-11 16:31N 53°27' E 014°35'0 0.0
2015-Apr-11 15:28N 53°27' E 014°35'0 0.0
2015-Apr-11 14:31N 53°27' E 014°35'0 0.0
2015-Apr-11 13:31N 53°27' E 014°35'0 0.0
2015-Apr-11 12:31N 53°27' E 014°35'0 0.0
2015-Apr-11 11:31N 53°27' E 014°35'0 0.0
2015-Apr-11 10:31N 53°27' E 014°35'0 0.0
2015-Apr-11 09:31N 53°27' E 014°35'0 0.0
2015-Apr-11 08:31N 53°27' E 014°35'0 0.0
2015-Apr-11 07:31N 53°27' E 014°35'0 0.0
2015-Apr-11 06:31N 53°27' E 014°35'0 0.0
2015-Apr-11 05:31N 53°27' E 014°35'0 0.0
2015-Apr-11 04:31N 53°27' E 014°35'0 0.0
2015-Apr-11 03:31N 53°27' E 014°35'0 0.0
2015-Apr-11 02:31N 53°27' E 014°35'0 0.0
2015-Apr-11 01:31N 53°27' E 014°35'0 0.0
2015-Apr-11 00:31N 53°27' E 014°35'0 0.0
2015-Apr-10 23:31N 53°27' E 014°35'0 0.0
2015-Apr-10 22:31N 53°27' E 014°35'0 0.0
2015-Apr-10 21:31N 53°27' E 014°35'0 0.0
2015-Apr-10 20:31N 53°27' E 014°35'0 0.0
2015-Apr-10 19:31N 53°27' E 014°35'0 0.0
2015-Apr-10 18:31N 53°27' E 014°35'0 0.0
2015-Apr-10 17:31N 53°27' E 014°35'0 0.0
2015-Apr-10 16:31N 53°27' E 014°35'0 0.0
2015-Apr-10 15:31N 53°27' E 014°35'0 0.0
2015-Apr-10 14:31N 53°27' E 014°35'0 0.0
2015-Apr-10 13:31N 53°27' E 014°35'0 0.0
2015-Apr-10 12:32N 53°27' E 014°35'0 0.0
2015-Apr-10 11:32N 53°27' E 014°35'0 0.0
2015-Apr-10 10:32N 53°27' E 014°35'0 0.0
2015-Apr-10 09:32N 53°27' E 014°35'0 0.0
2015-Apr-10 08:33N 53°27' E 014°35'0 0.0
2015-Apr-10 07:33N 53°27' E 014°35'0 0.0
2015-Apr-10 06:33N 53°27' E 014°35'0 0.0
2015-Apr-10 05:33N 53°27' E 014°35'0 0.0
2015-Apr-10 04:33N 53°27' E 014°35'0 0.0
2015-Apr-10 03:33N 53°27' E 014°35'0 0.0
2015-Apr-10 02:33N 53°27' E 014°35'0 0.0
2015-Apr-10 01:30N 53°27' E 014°35'0 0.0
2015-Apr-10 00:33N 53°27' E 014°35'0 0.0
2015-Apr-09 23:33N 53°27' E 014°35'0 0.0
2015-Apr-09 22:33N 53°27' E 014°35'0 0.0
2015-Apr-09 21:33N 53°27' E 014°35'0 0.0
2015-Apr-09 20:33N 53°27' E 014°35'0 0.0
2015-Apr-09 19:33N 53°27' E 014°35'0 0.0
2015-Apr-09 18:33N 53°27' E 014°35'0 0.0
2015-Apr-09 17:33N 53°27' E 014°35'0 0.0
2015-Apr-09 16:33N 53°27' E 014°35'0 0.0
2015-Apr-09 15:33N 53°27' E 014°35'0 0.0
2015-Apr-09 14:33N 53°27' E 014°35'0 0.0
2015-Apr-09 13:33N 53°27' E 014°35'0 0.0
2015-Apr-09 12:33N 53°27' E 014°35'0 0.0
2015-Apr-09 11:33N 53°27' E 014°35'0 0.0
2015-Apr-09 10:33N 53°27' E 014°35'0 0.0
2015-Apr-09 09:33N 53°27' E 014°35'0 0.0
2015-Apr-09 08:33N 53°27' E 014°35'0 0.0
2015-Apr-09 07:33N 53°27' E 014°35'0 0.0
2015-Apr-09 06:33N 53°27' E 014°35'0 0.0
2015-Apr-09 05:33N 53°27' E 014°35'0 0.0
2015-Apr-09 04:33N 53°27' E 014°35'0 0.0
2015-Apr-09 03:33N 53°27' E 014°35'0 0.0
2015-Apr-09 02:33N 53°27' E 014°35'0 0.0
2015-Apr-09 01:33N 53°27' E 014°35'0 0.0
2015-Apr-09 00:33N 53°27' E 014°35'0 0.0
2015-Apr-08 23:33N 53°27' E 014°35'0 0.0
2015-Apr-08 22:33N 53°27' E 014°35'0 0.0
2015-Apr-08 21:33N 53°27' E 014°35'0 0.0
2015-Apr-08 20:33N 53°27' E 014°35'0 0.0
2015-Apr-08 19:33N 53°27' E 014°35'0 0.0
2015-Apr-08 18:33N 53°27' E 014°35'0 0.0
2015-Apr-08 17:33N 53°27' E 014°35'0 0.0
2015-Apr-08 16:33N 53°27' E 014°35'0 0.0
2015-Apr-08 15:33N 53°27' E 014°35'0 0.0
2015-Apr-08 14:33N 53°27' E 014°35'  

Dump ship's entire track history